Time;durP1;ratioP1;P1;durP2;ratioP2;P2;SDS_P1;SDS_P2;PMS_P1;PMS_P2;Temp;Humidity;BMP_temperature;BMP_pressure;BME280_temperature;BME280_humidity;BME280_pressure;Samples;Min_cycle;Max_cycle;Signal;HPM_P1;HPM_P2
2023/03/25 03:02:58;;;;;;;7.80;7.30;;;7.80;99.90;;;;;;4944392;28;20548;-76
2023/03/25 03:05:27;;;;;;;8.00;7.40;;;7.80;99.90;;;;;;4945886;28;20203;-75
2023/03/25 03:08:06;;;;;;;7.73;7.33;;;7.90;99.90;;;;;;4946629;29;20203;-76
2023/03/25 03:10:41;;;;;;;7.93;7.43;;;7.80;99.90;;;;;;4950038;29;20272;-76
2023/03/25 03:13:19;;;;;;;7.60;7.20;;;7.60;99.90;;;;;;4945543;28;20265;-76
2023/03/25 03:15:54;;;;;;;7.90;7.40;;;7.50;99.90;;;;;;4936313;29;20253;-77
2023/03/25 03:18:33;;;;;;;7.47;7.07;;;7.50;99.90;;;;;;4948101;29;20213;-77
2023/03/25 03:21:10;;;;;;;8.50;8.00;;;7.50;99.90;;;;;;4946948;28;20231;-77
2023/03/25 03:23:49;;;;;;;8.00;7.60;;;7.50;99.90;;;;;;4949211;29;20206;-76
2023/03/25 03:26:25;;;;;;;7.97;7.57;;;7.50;99.90;;;;;;4949392;29;20218;-77
2023/03/25 03:28:57;;;;;;;8.17;7.67;;;7.50;99.90;;;;;;4948465;28;20281;-76
2023/03/25 03:31:28;;;;;;;8.40;7.80;;;7.40;99.90;;;;;;4954348;29;20230;-80
2023/03/25 03:34:01;;;;;;;7.90;7.40;;;7.40;99.90;;;;;;4951937;29;20213;-75
2023/03/25 03:36:33;;;;;;;8.13;7.67;;;7.30;99.90;;;;;;4950889;28;20210;-76
2023/03/25 03:39:04;;;;;;;7.80;7.40;;;7.30;99.90;;;;;;4950114;29;20249;-75
2023/03/25 03:41:36;;;;;;;8.17;7.67;;;7.30;99.90;;;;;;4946382;29;20710;-76
2023/03/25 03:44:07;;;;;;;7.80;7.40;;;7.30;99.90;;;;;;4948702;28;20251;-77
2023/03/25 03:46:38;;;;;;;7.80;7.40;;;7.30;99.90;;;;;;4951443;28;20584;-77
2023/03/25 03:49:10;;;;;;;7.70;7.20;;;7.30;99.90;;;;;;4943924;29;20244;-77
2023/03/25 03:51:41;;;;;;;7.93;7.43;;;7.30;99.90;;;;;;4956904;28;20293;-77
2023/03/25 03:54:13;;;;;;;7.80;7.40;;;7.20;99.90;;;;;;4952038;29;20699;-77
2023/03/25 03:56:45;;;;;;;8.20;7.60;;;7.20;99.90;;;;;;4949102;29;20203;-79
2023/03/25 03:59:17;;;;;;;7.90;7.50;;;7.20;99.90;;;;;;4950224;28;20203;-83
2023/03/25 04:01:47;;;;;;;7.57;7.13;;;7.20;99.90;;;;;;4955374;29;20230;-81
2023/03/25 04:04:19;;;;;;;7.90;7.40;;;7.30;99.90;;;;;;4952648;29;20262;-79
2023/03/25 04:06:55;;;;;;;7.80;7.30;;;7.30;99.90;;;;;;4933400;29;20195;-78
2023/03/25 04:09:27;;;;;;;7.80;7.30;;;7.30;99.90;;;;;;4936580;29;20206;-79
2023/03/25 04:11:58;;;;;;;7.83;7.43;;;7.30;99.90;;;;;;4935560;29;20297;-79
2023/03/25 04:14:25;;;;;;;7.90;7.40;;;7.30;99.90;;;;;;4936109;29;20223;-79
2023/03/25 04:16:52;;;;;;;7.47;7.07;;;7.30;99.90;;;;;;4935554;29;20564;-79
2023/03/25 04:19:20;;;;;;;8.20;7.50;;;7.30;99.90;;;;;;4939520;29;20233;-80
2023/03/25 04:21:47;;;;;;;7.37;6.87;;;7.20;99.90;;;;;;4943631;29;20293;-80
2023/03/25 04:24:15;;;;;;;7.80;7.20;;;7.30;99.90;;;;;;4943271;28;20227;-80
2023/03/25 04:26:42;;;;;;;7.70;7.10;;;7.30;99.90;;;;;;4934528;29;20194;-80
2023/03/25 04:29:09;;;;;;;7.60;7.20;;;7.20;99.90;;;;;;4934101;29;20274;-80
2023/03/25 04:31:44;;;;;;;7.63;7.23;;;7.30;99.90;;;;;;4938342;29;20289;-80
2023/03/25 04:34:13;;;;;;;7.60;7.20;;;7.20;99.90;;;;;;4934394;29;20215;-82
2023/03/25 04:36:41;;;;;;;7.43;7.03;;;7.20;99.90;;;;;;4930769;29;20211;-81
2023/03/25 04:39:10;;;;;;;7.57;7.10;;;7.20;99.90;;;;;;4939271;29;20290;-80
2023/03/25 04:41:38;;;;;;;7.40;7.00;;;7.10;99.90;;;;;;4937611;29;20222;-80
2023/03/25 04:44:06;;;;;;;8.10;7.50;;;7.10;99.90;;;;;;4933263;29;20202;-81
2023/03/25 04:46:35;;;;;;;7.70;7.30;;;7.10;99.90;;;;;;4941813;29;20259;-79
2023/03/25 04:49:02;;;;;;;7.73;7.20;;;7.10;99.90;;;;;;4940208;29;20201;-80
2023/03/25 04:51:30;;;;;;;8.30;7.80;;;7.00;99.90;;;;;;4947558;29;20305;-80
2023/03/25 04:53:58;;;;;;;8.10;7.60;;;7.00;99.90;;;;;;4938414;29;20693;-80
2023/03/25 04:56:24;;;;;;;8.60;8.00;;;6.90;99.90;;;;;;4937205;29;20207;-80
2023/03/25 04:58:52;;;;;;;8.07;7.50;;;6.90;99.90;;;;;;4931151;29;20290;-78
2023/03/25 05:01:29;;;;;;;8.73;8.10;;;6.90;99.90;;;;;;4935115;29;20782;-76
2023/03/25 05:04:03;;;;;;;8.30;7.80;;;6.80;99.90;;;;;;4947215;29;20196;-77
2023/03/25 05:06:31;;;;;;;8.80;8.10;;;6.80;99.90;;;;;;4949301;28;20207;-78
2023/03/25 05:09:02;;;;;;;8.30;7.80;;;6.80;99.90;;;;;;4949928;29;20586;-77
2023/03/25 05:11:30;;;;;;;8.40;7.70;;;6.80;99.90;;;;;;4951371;28;20308;-77
2023/03/25 05:13:56;;;;;;;8.47;7.87;;;6.80;99.90;;;;;;4948630;29;20789;-78
2023/03/25 05:16:23;;;;;;;8.27;7.77;;;6.80;99.90;;;;;;4946938;29;20618;-77
2023/03/25 05:18:50;;;;;;;8.40;7.90;;;6.80;99.90;;;;;;4949829;28;20565;-79
2023/03/25 05:21:17;;;;;;;8.60;7.90;;;6.80;99.90;;;;;;4948649;29;20317;-78
2023/03/25 05:23:44;;;;;;;8.73;8.13;;;6.80;99.90;;;;;;4932590;29;20230;-78
2023/03/25 05:26:12;;;;;;;9.00;8.40;;;6.70;99.90;;;;;;4939190;29;20525;-77
2023/03/25 05:28:39;;;;;;;8.80;8.20;;;6.80;99.90;;;;;;4952811;29;20269;-79
2023/03/25 05:31:08;;;;;;;9.13;8.53;;;6.80;99.90;;;;;;4948339;29;20273;-79
2023/03/25 05:33:35;;;;;;;9.03;8.37;;;6.80;99.90;;;;;;4940197;28;20223;-78
2023/03/25 05:36:03;;;;;;;8.70;8.10;;;6.90;99.90;;;;;;4953186;29;20202;-80
2023/03/25 05:38:32;;;;;;;8.60;8.10;;;7.00;99.90;;;;;;4953145;28;20285;-79
2023/03/25 05:41:00;;;;;;;9.00;8.40;;;7.00;99.90;;;;;;4950798;29;20218;-79
2023/03/25 05:43:34;;;;;;;8.87;8.17;;;7.10;99.90;;;;;;4949780;29;20198;-79
2023/03/25 05:46:03;;;;;;;9.13;8.53;;;7.10;99.90;;;;;;4952846;28;20213;-79
2023/03/25 05:48:31;;;;;;;8.50;7.97;;;7.20;99.90;;;;;;4953198;28;20260;-81
2023/03/25 05:50:59;;;;;;;8.60;8.10;;;7.30;99.90;;;;;;4950120;28;20223;-79
2023/03/25 05:53:25;;;;;;;8.77;8.07;;;7.40;99.90;;;;;;4944880;28;20317;-77
2023/03/25 05:55:52;;;;;;;8.40;7.90;;;7.40;99.90;;;;;;4934606;29;20685;-77
2023/03/25 05:58:19;;;;;;;8.83;8.13;;;7.50;99.90;;;;;;4937744;29;20199;-76
2023/03/25 06:00:47;;;;;;;8.40;7.90;;;7.70;99.90;;;;;;4936008;29;20235;-77
2023/03/25 06:03:14;;;;;;;8.87;8.27;;;7.80;99.90;;;;;;4938510;29;20203;-77
2023/03/25 06:05:41;;;;;;;8.70;8.00;;;7.80;99.90;;;;;;4935075;29;20229;-75
2023/03/25 06:08:08;;;;;;;8.60;8.00;;;7.90;99.90;;;;;;4933410;29;20207;-80
2023/03/25 06:10:35;;;;;;;8.57;7.97;;;8.00;99.90;;;;;;4938065;29;20217;-78
2023/03/25 06:13:02;;;;;;;8.70;8.20;;;8.10;99.90;;;;;;4932345;29;20278;-78
2023/03/25 06:15:32;;;;;;;8.47;7.83;;;8.20;99.90;;;;;;4933015;29;20207;-80
2023/03/25 06:18:00;;;;;;;8.43;7.70;;;8.30;99.90;;;;;;4934403;29;20270;-79
2023/03/25 06:20:27;;;;;;;7.90;7.40;;;8.30;99.90;;;;;;4932939;29;20203;-80
2023/03/25 06:22:54;;;;;;;7.97;7.50;;;8.40;99.90;;;;;;4934406;29;20733;-79
2023/03/25 06:25:21;;;;;;;8.10;7.60;;;8.40;99.90;;;;;;4934469;29;20203;-79
2023/03/25 06:27:49;;;;;;;8.10;7.57;;;8.40;99.90;;;;;;4934304;29;20195;-80
2023/03/25 06:30:18;;;;;;;9.23;8.50;;;8.40;99.90;;;;;;4934595;29;20230;-81
2023/03/25 06:32:49;;;;;;;9.20;8.60;;;8.50;99.90;;;;;;4937124;29;20226;-77
2023/03/25 06:35:18;;;;;;;9.20;8.50;;;8.70;99.90;;;;;;4940747;29;20234;-78
2023/03/25 06:37:46;;;;;;;8.27;7.73;;;9.00;99.90;;;;;;4937745;29;20203;-76
2023/03/25 06:40:21;;;;;;;8.13;7.63;;;9.20;99.90;;;;;;4934933;29;20210;-78
2023/03/25 06:42:48;;;;;;;8.60;8.00;;;9.30;99.90;;;;;;4931582;29;20300;-78
2023/03/25 06:45:34;;;;;;;8.90;8.27;;;9.20;99.90;;;;;;4936597;29;20210;-78
2023/03/25 06:48:09;;;;;;;8.57;7.97;;;9.10;99.90;;;;;;4932310;29;20230;-78
2023/03/25 06:50:37;;;;;;;8.50;7.90;;;9.10;99.90;;;;;;4919899;29;20208;-78
2023/03/25 06:53:04;;;;;;;8.30;7.73;;;9.10;99.90;;;;;;4924122;29;20231;-78
2023/03/25 06:55:31;;;;;;;8.77;8.07;;;9.20;99.90;;;;;;4926451;29;20214;-78
2023/03/25 06:57:57;;;;;;;8.70;7.87;;;9.40;99.90;;;;;;4928397;29;20200;-79
2023/03/25 07:00:25;;;;;;;9.23;8.53;;;9.70;99.90;;;;;;4935072;29;20649;-76
2023/03/25 07:02:52;;;;;;;8.67;8.00;;;9.80;99.90;;;;;;4917667;29;20230;-77
2023/03/25 07:05:19;;;;;;;7.90;7.40;;;10.10;99.90;;;;;;4929112;29;20203;-77
2023/03/25 07:07:47;;;;;;;7.83;7.40;;;10.30;99.90;;;;;;4939834;29;20682;-77
2023/03/25 07:10:14;;;;;;;7.53;6.80;;;10.50;99.90;;;;;;4939700;29;20255;-77
2023/03/25 07:12:41;;;;;;;5.20;4.80;;;10.70;99.90;;;;;;4937194;29;20233;-78
2023/03/25 07:15:08;;;;;;;4.80;4.40;;;10.70;99.90;;;;;;4939804;29;20223;-80
2023/03/25 07:17:37;;;;;;;5.57;5.18;;;10.70;99.90;;;;;;4937353;29;20449;-77
2023/03/25 07:20:06;;;;;;;5.27;4.77;;;10.70;99.90;;;;;;4938932;29;20210;-77
2023/03/25 07:22:32;;;;;;;4.50;4.00;;;10.70;99.90;;;;;;4939728;29;20826;-76
2023/03/25 07:25:01;;;;;;;4.57;4.27;;;10.80;99.90;;;;;;4938948;29;20214;-77
2023/03/25 07:27:27;;;;;;;4.27;3.97;;;10.80;99.90;;;;;;4939756;29;20206;-77
2023/03/25 07:30:02;;;;;;;4.80;4.50;;;10.80;99.90;;;;;;4938471;29;20283;-76
2023/03/25 07:32:29;;;;;;;4.47;4.10;;;10.90;99.90;;;;;;4938654;29;20711;-76
2023/03/25 07:34:55;;;;;;;5.20;3.80;;;11.00;99.90;;;;;;4937857;29;20216;-83
2023/03/25 07:37:22;;;;;;;3.20;2.83;;;11.00;99.90;;;;;;4935022;29;20257;-81
2023/03/25 07:39:49;;;;;;;3.47;3.20;;;11.40;99.90;;;;;;4945161;29;20202;-80
2023/03/25 07:42:17;;;;;;;3.43;2.93;;;12.00;99.90;;;;;;4940127;29;20227;-80
2023/03/25 07:45:02;;;;;;;3.93;2.57;;;12.40;99.90;;;;;;4929130;29;20197;-81
2023/03/25 07:47:30;;;;;;;2.10;2.00;;;12.80;99.90;;;;;;4947066;28;20215;-81
2023/03/25 07:49:56;;;;;;;2.67;2.47;;;13.10;99.90;;;;;;4936222;29;20207;-82
2023/03/25 07:52:23;;;;;;;2.40;2.30;;;13.00;99.90;;;;;;4936293;29;20610;-80
2023/03/25 07:54:50;;;;;;;2.53;2.43;;;12.90;99.90;;;;;;4944977;28;20211;-80
2023/03/25 07:57:18;;;;;;;2.33;2.10;;;13.20;99.90;;;;;;4935948;29;20737;-80
2023/03/25 07:59:45;;;;;;;2.27;2.07;;;13.50;99.90;;;;;;4937254;29;20230;-80
2023/03/25 08:02:14;;;;;;;1.90;1.80;;;14.20;99.90;;;;;;4934719;29;20234;-79
2023/03/25 08:04:40;;;;;;;3.90;1.77;;;14.60;99.90;;;;;;4944273;29;20196;-79
2023/03/25 08:07:08;;;;;;;1.83;1.73;;;14.60;99.90;;;;;;4932660;29;20267;-80
2023/03/25 08:09:35;;;;;;;1.80;1.70;;;14.60;99.90;;;;;;4934794;29;20290;-80
2023/03/25 08:12:02;;;;;;;2.10;1.90;;;14.80;99.90;;;;;;4935852;29;20226;-80
2023/03/25 08:14:30;;;;;;;1.77;1.67;;;14.80;99.90;;;;;;4934937;29;20367;-80
2023/03/25 08:16:56;;;;;;;2.37;1.63;;;14.50;99.90;;;;;;4935111;29;20207;-82
2023/03/25 08:19:23;;;;;;;2.33;1.63;;;14.40;99.90;;;;;;4937837;29;20632;-81
2023/03/25 08:21:50;;;;;;;1.70;1.60;;;14.10;99.90;;;;;;4930514;29;20277;-81
2023/03/25 08:24:17;;;;;;;1.50;1.50;;;14.00;99.90;;;;;;4936961;29;20225;-81
2023/03/25 08:26:44;;;;;;;1.50;1.50;;;14.40;99.90;;;;;;4937221;29;20201;-81
2023/03/25 08:29:11;;;;;;;2.23;1.60;;;14.60;99.90;;;;;;4935606;29;20634;-82
2023/03/25 08:31:39;;;;;;;3.70;1.70;;;15.00;99.90;;;;;;4935964;29;20216;-81
2023/03/25 08:34:06;;;;;;;1.40;1.40;;;15.00;99.90;;;;;;4945464;28;20220;-82
2023/03/25 08:36:33;;;;;;;1.80;1.70;;;14.80;99.90;;;;;;4935109;29;20959;-77
2023/03/25 08:39:00;;;;;;;2.50;1.80;;;14.50;99.90;;;;;;4938197;29;20196;-76
2023/03/25 08:41:27;;;;;;;2.00;1.50;;;14.30;99.90;;;;;;4938940;29;20710;-76
2023/03/25 08:43:53;;;;;;;2.93;1.67;;;14.00;99.90;;;;;;4938017;29;20276;-77
2023/03/25 08:46:20;;;;;;;1.90;1.80;;;14.00;99.90;;;;;;4938251;29;20211;-76
2023/03/25 08:48:48;;;;;;;2.60;1.87;;;14.00;99.90;;;;;;4938909;29;20265;-76
2023/03/25 08:51:15;;;;;;;2.23;1.80;;;14.00;99.90;;;;;;4937431;29;20229;-76
2023/03/25 08:53:42;;;;;;;1.90;1.80;;;14.40;99.90;;;;;;4938749;29;20212;-77
2023/03/25 08:56:10;;;;;;;1.80;1.70;;;14.80;99.90;;;;;;4943380;29;20623;-76
2023/03/25 08:58:37;;;;;;;1.90;1.80;;;14.90;99.90;;;;;;4954767;28;20209;-76
2023/03/25 09:01:05;;;;;;;1.77;1.63;;;14.70;99.90;;;;;;4950196;29;20785;-76
2023/03/25 09:03:32;;;;;;;1.70;1.60;;;14.70;99.90;;;;;;4940747;28;20626;-76
2023/03/25 09:06:04;;;;;;;1.70;1.60;;;15.20;99.90;;;;;;4950225;28;20661;-76
2023/03/25 09:08:31;;;;;;;1.80;1.70;;;15.80;99.90;;;;;;4967029;28;20202;-76
2023/03/25 09:10:59;;;;;;;2.07;1.80;;;16.00;99.90;;;;;;4950212;29;20598;-76
2023/03/25 09:13:26;;;;;;;1.70;1.60;;;16.30;99.90;;;;;;4952881;29;20206;-76
2023/03/25 09:15:53;;;;;;;3.73;1.70;;;16.60;99.90;;;;;;4953033;29;20258;-76
2023/03/25 09:18:20;;;;;;;1.77;1.67;;;16.40;99.90;;;;;;4947887;29;20219;-76
2023/03/25 09:20:47;;;;;;;1.90;1.70;;;16.40;99.90;;;;;;4936827;29;20220;-76
2023/03/25 09:23:15;;;;;;;1.87;1.77;;;16.40;99.90;;;;;;4949396;29;20213;-76
2023/03/25 09:25:43;;;;;;;1.90;1.80;;;16.20;99.90;;;;;;4924941;28;20192;-76
2023/03/25 09:28:09;;;;;;;1.70;1.60;;;16.10;99.90;;;;;;4946022;29;20196;-76
2023/03/25 09:30:36;;;;;;;1.50;1.50;;;16.00;99.90;;;;;;4947155;28;20713;-77
2023/03/25 09:33:03;;;;;;;1.97;1.77;;;15.70;99.90;;;;;;4953436;29;20194;-76
2023/03/25 09:35:30;;;;;;;1.77;1.67;;;15.40;99.90;;;;;;4951037;29;20214;-76
2023/03/25 09:37:57;;;;;;;1.93;1.73;;;15.10;99.90;;;;;;4943037;29;20281;-76
2023/03/25 09:40:25;;;;;;;1.80;1.70;;;14.80;99.90;;;;;;4949877;28;20202;-76
2023/03/25 09:43:11;;;;;;;3.20;1.80;;;14.60;99.90;;;;;;4950322;28;20629;-76
2023/03/25 09:45:41;;;;;;;1.60;1.50;;;14.60;99.90;;;;;;4948217;28;20258;-76
2023/03/25 09:48:24;;;;;;;1.80;1.70;;;14.40;99.90;;;;;;4965989;28;20203;-76
2023/03/25 09:50:50;;;;;;;1.80;1.70;;;14.20;99.90;;;;;;4953274;28;20229;-76
2023/03/25 09:53:26;;;;;;;1.60;1.50;;;14.50;99.90;;;;;;4948247;28;20708;-76
2023/03/25 09:55:55;;;;;;;2.13;1.70;;;14.70;99.90;;;;;;4953926;28;20281;-77
2023/03/25 09:58:40;;;;;;;1.75;1.65;;;15.10;99.90;;;;;;4944981;29;20496;-79
2023/03/25 10:01:18;;;;;;;2.47;1.77;;;15.60;99.90;;;;;;4945759;29;20323;-81
2023/03/25 10:03:55;;;;;;;1.60;1.50;;;15.50;99.90;;;;;;4952486;29;20206;-82
2023/03/25 10:06:25;;;;;;;1.60;1.50;;;15.50;99.90;;;;;;4949327;28;20202;-81
2023/03/25 10:09:09;;;;;;;2.57;1.70;;;15.30;99.90;;;;;;4944940;28;20198;-79
2023/03/25 10:11:45;;;;;;;1.77;1.50;;;14.80;99.90;;;;;;4939152;29;21001;-79
2023/03/25 10:14:21;;;;;;;2.20;1.83;;;14.20;99.90;;;;;;4941349;29;20203;-80
2023/03/25 10:16:59;;;;;;;1.70;1.70;;;13.90;99.90;;;;;;4940234;29;20269;-80
2023/03/25 10:19:41;;;;;;;3.03;2.30;;;14.00;99.90;;;;;;4936764;29;20209;-79
2023/03/25 10:22:16;;;;;;;2.00;1.90;;;14.10;99.90;;;;;;4949264;29;20221;-79
2023/03/25 10:24:46;;;;;;;1.80;1.70;;;14.40;99.90;;;;;;4940617;28;20228;-80
2023/03/25 10:27:22;;;;;;;1.80;1.70;;;14.20;99.90;;;;;;4952328;28;20205;-80
2023/03/25 10:29:52;;;;;;;2.23;2.07;;;13.90;99.90;;;;;;4941378;29;20670;-80
2023/03/25 10:32:30;;;;;;;2.83;2.50;;;13.70;99.90;;;;;;4947557;29;20229;-80
2023/03/25 10:34:58;;;;;;;2.77;2.20;;;13.90;99.90;;;;;;4951993;28;20211;-80
2023/03/25 10:37:29;;;;;;;2.10;1.90;;;14.10;99.90;;;;;;4949012;29;20535;-80
2023/03/25 10:40:00;;;;;;;3.27;2.93;;;13.90;99.90;;;;;;4946660;29;20755;-80
2023/03/25 10:42:34;;;;;;;2.77;2.50;;;13.40;99.90;;;;;;4943130;29;20229;-79
2023/03/25 10:45:01;;;;;;;5.53;3.20;;;13.00;99.90;;;;;;4944643;29;20202;-79
2023/03/25 10:47:33;;;;;;;3.50;3.20;;;12.50;99.90;;;;;;4949072;28;20634;-80
2023/03/25 10:49:59;;;;;;;3.30;3.10;;;12.40;99.90;;;;;;4936211;29;20257;-80
2023/03/25 10:52:27;;;;;;;3.20;3.00;;;12.50;99.90;;;;;;4949009;29;20734;-81
2023/03/25 10:54:56;;;;;;;2.43;2.30;;;12.60;99.90;;;;;;4945032;28;20229;-81
2023/03/25 10:57:26;;;;;;;3.80;3.53;;;12.70;99.90;;;;;;4949795;29;20239;-81
2023/03/25 11:00:00;;;;;;;3.13;2.40;;;12.90;99.90;;;;;;4952609;28;20204;-81
2023/03/25 11:02:30;;;;;;;3.17;3.03;;;13.20;99.90;;;;;;4947015;29;20238;-80
2023/03/25 11:04:59;;;;;;;2.47;2.27;;;13.40;99.90;;;;;;4939517;29;20196;-81
2023/03/25 11:07:30;;;;;;;3.93;3.73;;;13.40;99.90;;;;;;4950562;28;20214;-81
2023/03/25 11:10:15;;;;;;;5.43;5.03;;;13.60;99.90;;;;;;4948267;29;20209;-80
2023/03/25 11:12:44;;;;;;;3.10;2.90;;;13.90;99.90;;;;;;4954254;28;20711;-80
2023/03/25 11:15:16;;;;;;;3.47;3.27;;;14.10;99.90;;;;;;4925375;29;20293;-80
2023/03/25 11:17:46;;;;;;;3.23;3.03;;;14.20;99.90;;;;;;4934810;29;20204;-80
2023/03/25 11:20:20;;;;;;;2.10;2.00;;;14.20;99.90;;;;;;4934270;29;20214;-79
2023/03/25 11:22:50;;;;;;;2.10;2.00;;;14.20;99.90;;;;;;4938709;29;20211;-79
2023/03/25 11:25:20;;;;;;;1.90;1.80;;;14.30;99.90;;;;;;4933314;29;20232;-79
2023/03/25 11:27:51;;;;;;;2.37;2.07;;;14.10;99.90;;;;;;4935914;29;20206;-80
2023/03/25 11:30:22;;;;;;;2.60;2.40;;;13.90;99.90;;;;;;4939274;29;20212;-79
2023/03/25 11:32:58;;;;;;;3.00;2.80;;;13.70;99.90;;;;;;4947809;29;20202;-81
2023/03/25 11:35:27;;;;;;;3.30;3.10;;;13.40;99.90;;;;;;4945823;29;20643;-76
2023/03/25 11:37:57;;;;;;;3.07;2.87;;;13.30;99.90;;;;;;4933306;29;20302;-76
2023/03/25 11:40:25;;;;;;;5.27;3.57;;;13.30;99.90;;;;;;4934598;29;20229;-77
2023/03/25 11:42:54;;;;;;;3.50;3.30;;;13.30;99.90;;;;;;4935575;29;20213;-76
2023/03/25 11:45:26;;;;;;;3.53;3.37;;;13.30;99.90;;;;;;4934817;29;20208;-76
2023/03/25 11:47:57;;;;;;;4.40;4.00;;;13.30;99.90;;;;;;4934109;29;20710;-76
2023/03/25 11:50:26;;;;;;;3.80;3.60;;;13.50;99.90;;;;;;4937052;29;20751;-76
2023/03/25 11:52:56;;;;;;;3.00;2.80;;;13.60;99.90;;;;;;4937633;29;20257;-76
2023/03/25 11:55:27;;;;;;;3.63;3.37;;;13.60;99.90;;;;;;4940146;29;20220;-76
2023/03/25 11:57:56;;;;;;;3.40;3.20;;;13.70;99.90;;;;;;4939927;29;20208;-81
2023/03/25 12:00:32;;;;;;;2.63;2.43;;;13.90;99.90;;;;;;4936038;29;20226;-79
2023/03/25 12:03:01;;;;;;;2.27;2.10;;;14.10;99.90;;;;;;4936024;29;20212;-79
2023/03/25 12:05:29;;;;;;;2.90;2.70;;;14.30;99.90;;;;;;4937162;29;20580;-79
2023/03/25 12:08:04;;;;;;;2.40;2.30;;;14.30;99.90;;;;;;4938704;29;20216;-79
2023/03/25 12:10:41;;;;;;;2.97;2.70;;;14.00;99.90;;;;;;4935482;29;20207;-79
2023/03/25 12:13:13;;;;;;;3.03;2.80;;;13.90;99.90;;;;;;4935805;29;20572;-79
2023/03/25 12:15:50;;;;;;;3.00;2.80;;;13.80;99.90;;;;;;4936846;29;20634;-78
2023/03/25 12:18:34;;;;;;;2.60;2.40;;;13.70;99.90;;;;;;4940665;29;20205;-80
2023/03/25 12:21:10;;;;;;;2.63;2.50;;;13.70;99.90;;;;;;4932976;29;20247;-78
2023/03/25 12:23:44;;;;;;;2.57;2.47;;;13.70;99.90;;;;;;4937581;29;20256;-79
2023/03/25 12:26:14;;;;;;;2.80;2.60;;;13.80;99.90;;;;;;4937111;29;20195;-80
2023/03/25 12:29:15;;;;;;;2.60;2.50;;;13.90;99.90;;;;;;4936342;29;20554;-81
2023/03/25 12:31:55;;;;;;;2.27;2.07;;;14.00;99.90;;;;;;4934683;29;20232;-79
2023/03/25 12:34:32;;;;;;;2.40;2.20;;;13.90;99.90;;;;;;4935661;28;20209;-79
2023/03/25 12:37:06;;;;;;;3.70;2.40;;;14.00;99.90;;;;;;4936148;29;20220;-79
2023/03/25 12:39:49;;;;;;;2.30;2.20;;;14.00;99.90;;;;;;4935231;29;20264;-80
2023/03/25 12:42:29;;;;;;;2.13;1.93;;;14.00;99.90;;;;;;4929640;29;20225;-79
2023/03/25 12:45:18;;;;;;;2.43;2.23;;;14.00;99.90;;;;;;4936254;29;20208;-79
2023/03/25 12:47:54;;;;;;;2.70;2.50;;;13.70;99.90;;;;;;4935500;29;20307;-80
2023/03/25 12:50:34;;;;;;;3.07;2.87;;;13.60;99.90;;;;;;4939022;29;20224;-79
2023/03/25 12:53:14;;;;;;;3.87;3.53;;;13.60;99.90;;;;;;4937749;29;20207;-79
2023/03/25 12:55:52;;;;;;;3.10;2.83;;;13.80;99.90;;;;;;4939763;29;20264;-79
2023/03/25 12:58:45;;;;;;;3.60;2.30;;;14.00;99.90;;;;;;4937908;29;20202;-79
2023/03/25 13:01:21;;;;;;;2.60;2.40;;;14.30;99.90;;;;;;4938577;29;20234;-79
2023/03/25 13:04:11;;;;;;;3.30;3.00;;;14.10;99.90;;;;;;4939521;29;20224;-78
2023/03/25 13:06:42;;;;;;;2.80;2.70;;;13.90;99.90;;;;;;4939335;29;20204;-77
2023/03/25 13:09:12;;;;;;;4.07;3.83;;;13.80;99.90;;;;;;4940547;29;20285;-80
2023/03/25 13:11:43;;;;;;;3.93;3.70;;;13.80;99.90;;;;;;4937711;29;20592;-79
2023/03/25 13:14:16;;;;;;;3.83;3.63;;;13.80;99.90;;;;;;4937279;29;20205;-79
2023/03/25 13:16:44;;;;;;;4.20;3.90;;;13.70;99.90;;;;;;4936520;29;20221;-80
2023/03/25 13:19:17;;;;;;;4.10;3.90;;;13.70;99.90;;;;;;4931497;29;20212;-81
2023/03/25 13:21:49;;;;;;;3.20;3.00;;;13.80;99.90;;;;;;4935853;29;20278;-83
2023/03/25 13:24:19;;;;;;;3.40;3.20;;;13.80;99.90;;;;;;4934125;29;20680;-82
2023/03/25 13:26:48;;;;;;;3.10;2.90;;;13.90;99.90;;;;;;4935685;29;20199;-81
2023/03/25 13:29:24;;;;;;;3.17;2.80;;;13.70;99.90;;;;;;4934249;29;20209;-82
2023/03/25 13:31:52;;;;;;;2.60;2.40;;;13.70;99.90;;;;;;4935005;29;20268;-80
2023/03/25 13:34:25;;;;;;;3.17;3.07;;;13.70;99.90;;;;;;4936124;29;20233;-80
2023/03/25 13:37:03;;;;;;;3.47;3.27;;;13.60;99.90;;;;;;4935826;29;20223;-80
2023/03/25 13:39:41;;;;;;;2.43;1.90;;;13.40;99.90;;;;;;4935300;29;20294;-83
2023/03/25 13:42:15;;;;;;;2.80;2.70;;;13.20;99.90;;;;;;4932902;29;20713;-82
2023/03/25 13:44:45;;;;;;;2.97;2.70;;;13.10;99.90;;;;;;4942357;29;20235;-81
2023/03/25 13:47:18;;;;;;;3.27;2.90;;;13.00;99.90;;;;;;4941900;29;20570;-81
2023/03/25 13:49:51;;;;;;;2.47;1.80;;;12.90;99.90;;;;;;4941085;29;20247;-81
2023/03/25 13:52:18;;;;;;;2.80;2.40;;;12.80;99.90;;;;;;4952946;28;20224;-81
2023/03/25 13:54:51;;;;;;;3.00;2.70;;;12.80;99.90;;;;;;4939530;29;20277;-81
2023/03/25 13:57:43;;;;;;;3.50;3.20;;;12.70;99.90;;;;;;4953248;28;20234;-81
2023/03/25 14:00:30;;;;;;;1.90;1.80;;;12.70;99.90;;;;;;4952314;29;20211;-81
2023/03/25 14:03:25;;;;;;;2.60;2.40;;;12.70;99.90;;;;;;4946354;29;20210;-76
2023/03/25 14:06:18;;;;;;;3.00;2.70;;;12.70;99.90;;;;;;4940556;28;20689;-76
2023/03/25 14:09:20;;;;;;;5.20;4.80;;;12.80;99.90;;;;;;4945879;29;20210;-77
2023/03/25 14:11:52;;;;;;;3.73;3.53;;;12.80;99.90;;;;;;4947702;29;20222;-79
2023/03/25 14:14:22;;;;;;;4.30;4.00;;;12.70;99.90;;;;;;4939855;29;20294;-77
2023/03/25 14:16:52;;;;;;;3.60;3.40;;;12.80;99.90;;;;;;4934286;29;20646;-76
2023/03/25 14:19:25;;;;;;;4.17;3.87;;;12.80;99.90;;;;;;4934647;29;20571;-76
2023/03/25 14:21:53;;;;;;;4.13;3.77;;;13.00;99.90;;;;;;4935009;29;20235;-76
2023/03/25 14:24:26;;;;;;;1.90;1.80;;;13.40;99.90;;;;;;4935269;29;20221;-76
2023/03/25 14:26:56;;;;;;;2.73;1.97;;;13.70;99.90;;;;;;4935246;29;20232;-76
2023/03/25 14:29:34;;;;;;;1.90;1.60;;;13.90;99.90;;;;;;4931903;29;20210;-77
2023/03/25 14:32:04;;;;;;;1.77;1.67;;;13.90;99.90;;;;;;4936149;29;20218;-77
2023/03/25 14:34:31;;;;;;;2.27;1.80;;;13.90;99.90;;;;;;4935930;29;20214;-77
2023/03/25 14:37:32;;;;;;;3.33;1.90;;;13.80;99.90;;;;;;4933913;29;20220;-77
2023/03/25 14:40:06;;;;;;;3.17;2.03;;;13.70;99.90;;;;;;4934461;29;20298;-76
2023/03/25 14:42:42;;;;;;;2.20;2.10;;;13.60;99.90;;;;;;4936039;29;20223;-76
2023/03/25 14:45:41;;;;;;;2.50;1.97;;;13.60;99.90;;;;;;4936293;29;20212;-76
2023/03/25 14:48:24;;;;;;;2.43;2.23;;;13.40;99.90;;;;;;4934811;29;20902;-76
2023/03/25 14:51:21;;;;;;;2.47;1.80;;;13.20;99.90;;;;;;4932479;29;20757;-76
2023/03/25 14:53:54;;;;;;;1.70;1.60;;;13.10;99.90;;;;;;4927281;29;20266;-76
2023/03/25 14:56:25;;;;;;;1.73;1.63;;;13.00;99.90;;;;;;4928359;29;20779;-76
2023/03/25 14:58:56;;;;;;;2.20;2.00;;;13.00;99.90;;;;;;4934712;29;20196;-76
2023/03/25 15:01:30;;;;;;;3.03;1.87;;;13.00;99.90;;;;;;4934763;29;20642;-76
2023/03/25 15:04:13;;;;;;;2.60;1.70;;;13.00;99.90;;;;;;4934801;29;20199;-76
2023/03/25 15:06:41;;;;;;;2.67;2.00;;;13.00;99.90;;;;;;4933322;29;20206;-76
2023/03/25 15:09:14;;;;;;;2.77;1.80;;;13.00;99.90;;;;;;4932093;29;20207;-75
2023/03/25 15:11:43;;;;;;;2.10;2.00;;;13.00;99.90;;;;;;4933417;29;20223;-75
2023/03/25 15:14:15;;;;;;;2.20;2.00;;;12.80;99.90;;;;;;4934111;29;20258;-76
2023/03/25 15:17:02;;;;;;;3.23;2.70;;;12.70;99.90;;;;;;4934723;29;20230;-75
2023/03/25 15:19:29;;;;;;;4.07;2.40;;;12.70;99.90;;;;;;4933738;29;20214;-75
2023/03/25 15:22:19;;;;;;;4.10;2.70;;;12.60;99.90;;;;;;4933901;29;20219;-75
2023/03/25 15:24:55;;;;;;;3.00;2.70;;;12.50;99.90;;;;;;4961885;28;20202;-79
2023/03/25 15:27:58;;;;;;;4.00;2.70;;;12.50;99.90;;;;;;4929873;29;20202;-75
2023/03/25 15:30:46;;;;;;;4.17;3.87;;;12.60;99.90;;;;;;4942320;28;20663;-76
2023/03/25 15:33:28;;;;;;;4.10;3.60;;;12.70;99.90;;;;;;4922653;29;20644;-77
2023/03/25 15:36:19;;;;;;;3.60;3.20;;;12.90;99.90;;;;;;4936701;29;20199;-75
2023/03/25 15:39:09;;;;;;;3.60;3.30;;;12.90;99.90;;;;;;4934057;29;20258;-75
2023/03/25 15:42:01;;;;;;;3.30;3.20;;;12.90;99.90;;;;;;4934981;29;20227;-76
2023/03/25 15:45:06;;;;;;;4.03;3.63;;;12.80;99.90;;;;;;4936172;29;20203;-76
2023/03/25 15:47:44;;;;;;;3.00;2.80;;;12.70;99.90;;;;;;4905243;29;20211;-76
2023/03/25 15:50:21;;;;;;;3.03;2.80;;;12.80;99.90;;;;;;4936715;29;20206;-75
2023/03/25 15:53:36;;;;;;;4.43;3.03;;;12.80;99.90;;;;;;4936850;29;20262;-75
2023/03/25 15:56:09;;;;;;;5.23;4.73;;;12.80;99.90;;;;;;4930800;29;20219;-75
2023/03/25 15:58:44;;;;;;;3.73;3.53;;;12.60;99.90;;;;;;4936554;29;20203;-75
2023/03/25 16:01:21;;;;;;;4.30;3.80;;;12.40;99.90;;;;;;4936390;29;20254;-76
2023/03/25 16:03:55;;;;;;;4.50;4.00;;;12.20;99.90;;;;;;4935555;29;20198;-75
2023/03/25 16:06:24;;;;;;;4.43;4.13;;;12.10;99.90;;;;;;4935238;29;20631;-76
2023/03/25 16:08:52;;;;;;;5.17;4.87;;;12.00;99.90;;;;;;4935109;29;20222;-76
2023/03/25 16:11:25;;;;;;;6.27;5.87;;;11.90;99.90;;;;;;4935208;29;20229;-76
2023/03/25 16:14:07;;;;;;;6.60;6.20;;;11.90;99.90;;;;;;4934135;29;20210;-76
2023/03/25 16:16:36;;;;;;;6.83;6.43;;;11.80;99.90;;;;;;4935281;29;20226;-76
2023/03/25 16:19:05;;;;;;;11.03;10.33;;;11.70;99.90;;;;;;4934995;29;20639;-76